Terminal Aerodrome Forecast
Issued by NWS

Home | Current Version | Previous Version | Text Only | Print | Product List | Glossary On
Versions: 1 2 3 4 5 6 7 8 9 10 11 12 13 14 15 16 17 18 19 20
757
FTUS43 KICT 272331
TAFRSL
TAF
KRSL 272331Z 2800/2824 VRB06KT P6SM SCT250
     FM280400 10005KT P6SM VCTS BKN080CB BKN200
     FM280800 31006KT P6SM SCT250
     FM281400 06006KT P6SM SCT250
     FM282000 11008KT P6SM SCT050 SCT250=

USA.gov is the U.S. government's official web portal to all federal, state and local government web resources and services.